Time;durP1;ratioP1;P1;durP2;ratioP2;P2;SDS_P1;SDS_P2;PMS_P1;PMS_P2;Temp;Humidity;BMP_temperature;BMP_pressure;BME280_temperature;BME280_humidity;BME280_pressure;Samples;Min_cycle;Max_cycle;Signal;HPM_P1;HPM_P2
2023/10/11 08:31:48;;;;;;;52.05;28.80;;;;;;;14.94;100.00;101356.72;5558992;31;103185;-62
2023/10/11 08:34:51;;;;;;;51.42;32.33;;;;;;;15.10;100.00;101360.06;5604405;31;33464;-61
2023/10/11 08:37:54;;;;;;;58.87;32.30;;;;;;;15.06;100.00;101358.19;5590768;31;33655;-62
2023/10/11 08:41:00;;;;;;;55.50;33.08;;;;;;;15.03;100.00;101359.56;5597991;31;33312;-63
2023/10/11 08:44:15;;;;;;;60.28;36.95;;;;;;;15.30;100.00;101356.34;5602106;31;33246;-63
2023/10/11 08:47:19;;;;;;;51.80;32.22;;;;;;;15.33;100.00;101355.75;5604467;31;33420;-61
2023/10/11 08:50:22;;;;;;;56.75;35.72;;;;;;;15.34;100.00;101361.97;5605421;31;34516;-62
2023/10/11 08:53:24;;;;;;;57.40;36.80;;;;;;;15.54;100.00;101358.22;5605098;31;33282;-62
2023/10/11 08:56:27;;;;;;;61.30;35.63;;;;;;;15.37;100.00;101348.69;5605557;31;33620;-61
2023/10/11 08:59:31;;;;;;;54.03;33.00;;;;;;;15.54;100.00;101350.91;5607047;31;33680;-62
2023/10/11 09:02:35;;;;;;;52.38;33.22;;;;;;;15.82;100.00;101351.91;5608849;31;33693;-62
2023/10/11 09:05:42;;;;;;;44.42;27.40;;;;;;;15.76;100.00;101347.69;5608732;31;33439;-62
2023/10/11 09:08:47;;;;;;;45.78;28.45;;;;;;;15.82;100.00;101351.09;5590097;31;34246;-62
2023/10/11 09:11:54;;;;;;;49.80;29.33;;;;;;;16.08;100.00;101348.84;5608017;31;33668;-62
2023/10/11 09:15:03;;;;;;;44.25;27.55;;;;;;;15.93;99.09;101350.69;5608438;31;34350;-62
2023/10/11 09:18:17;;;;;;;52.72;32.85;;;;;;;16.01;100.00;101343.81;5608140;31;34258;-62
2023/10/11 09:21:29;;;;;;;51.78;32.90;;;;;;;16.19;100.00;101353.81;5608285;31;33835;-62
2023/10/11 09:24:41;;;;;;;52.90;33.60;;;;;;;16.38;100.00;101345.66;5594310;31;33764;-62
2023/10/11 09:27:51;;;;;;;47.03;29.92;;;;;;;16.27;98.79;101349.63;5607105;31;33709;-62
2023/10/11 09:31:11;;;;;;;46.15;30.62;;;;;;;16.20;100.00;101341.87;5607671;31;33845;-62
2023/10/11 09:34:18;;;;;;;50.17;30.40;;;;;;;16.45;100.00;101345.28;5591221;31;33844;-61
2023/10/11 09:37:21;;;;;;;49.33;32.22;;;;;;;16.35;97.53;101348.94;5607269;31;34404;-61
2023/10/11 09:40:31;;;;;;;52.95;32.00;;;;;;;16.35;97.46;101348.16;5607515;31;33482;-62
2023/10/11 09:43:43;;;;;;;45.17;29.20;;;;;;;16.26;96.07;101341.78;5608313;31;34406;-62
2023/10/11 09:46:48;;;;;;;45.50;30.25;;;;;;;16.36;100.00;101342.47;5588885;31;34379;-62
2023/10/11 09:49:53;;;;;;;47.30;30.05;;;;;;;16.59;100.00;101338.03;5606521;31;33536;-59
2023/10/11 09:52:57;;;;;;;43.78;28.33;;;;;;;16.60;97.61;101333.41;5608079;31;33682;-60
2023/10/11 09:56:15;;;;;;;40.28;27.23;;;;;;;16.64;99.98;101337.91;5608157;31;33549;-60
2023/10/11 09:59:51;;;;;;;39.80;26.58;;;;;;;16.72;95.13;101332.91;5600864;31;33060;-60
2023/10/11 10:02:54;;;;;;;41.45;23.83;;;;;;;16.71;95.73;101326.69;5589389;31;34346;-60
2023/10/11 10:06:18;;;;;;;39.45;25.40;;;;;;;16.95;100.00;101331.97;5605429;31;33047;-59
2023/10/11 10:09:23;;;;;;;30.15;19.55;;;;;;;17.08;96.79;101328.47;5596673;31;33789;-61
2023/10/11 10:12:59;;;;;;;34.03;21.60;;;;;;;17.24;100.00;101318.13;5607128;31;34281;-61
2023/10/11 10:16:02;;;;;;;30.00;19.50;;;;;;;17.31;100.00;101318.53;5586910;31;33571;-61
2023/10/11 10:19:23;;;;;;;33.40;21.20;;;;;;;17.46;100.00;101308.50;5590368;31;34282;-61
2023/10/11 10:22:31;;;;;;;31.90;20.92;;;;;;;17.54;99.50;101303.12;5597693;31;33235;-61
2023/10/11 10:25:34;;;;;;;29.52;20.67;;;;;;;17.62;98.17;101297.00;5597004;31;34271;-61
2023/10/11 10:28:36;;;;;;;34.42;19.98;;;;;;;17.59;94.59;101300.31;5605375;31;33866;-61
2023/10/11 10:32:06;;;;;;;27.62;18.15;;;;;;;17.68;97.45;101300.41;5606586;31;34349;-63
2023/10/11 10:35:18;;;;;;;29.52;17.40;;;;;;;17.72;96.69;101295.19;5606671;31;33629;-63
2023/10/11 10:38:22;;;;;;;22.50;16.90;;;;;;;17.72;95.17;101290.56;5606541;31;33589;-61
2023/10/11 10:41:36;;;;;;;25.92;16.17;;;;;;;17.71;93.27;101286.22;5608087;31;33789;-61
2023/10/11 10:44:51;;;;;;;21.77;13.93;;;;;;;17.80;95.06;101279.00;5594650;31;33700;-62
2023/10/11 10:48:11;;;;;;;22.23;14.52;;;;;;;17.84;92.67;101276.47;5597443;31;33758;-61
2023/10/11 10:51:15;;;;;;;18.98;13.95;;;;;;;17.99;93.16;101272.59;5601803;31;33978;-61
2023/10/11 10:54:22;;;;;;;19.50;13.38;;;;;;;18.07;92.29;101269.94;5604835;31;33741;-61
2023/10/11 10:57:24;;;;;;;17.95;13.52;;;;;;;18.11;93.29;101270.13;5598088;31;35587;-62
2023/10/11 11:00:32;;;;;;;19.60;13.40;;;;;;;18.12;93.30;101265.53;5606930;31;33859;-62
2023/10/11 11:03:35;;;;;;;22.27;12.05;;;;;;;18.22;91.65;101257.91;5606335;31;33705;-62
2023/10/11 11:06:38;;;;;;;15.80;11.85;;;;;;;18.24;89.42;101252.16;5607611;31;33692;-61
2023/10/11 11:09:41;;;;;;;17.52;11.90;;;;;;;18.21;90.18;101250.91;5604698;31;33686;-62
2023/10/11 11:12:44;;;;;;;17.48;11.80;;;;;;;18.28;89.89;101250.47;5607615;31;33847;-62
2023/10/11 11:15:47;;;;;;;17.25;11.32;;;;;;;18.29;89.34;101231.13;5606472;31;33678;-61
2023/10/11 11:18:50;;;;;;;16.12;11.23;;;;;;;18.36;87.69;101235.31;5606632;31;33732;-62
2023/10/11 11:22:11;;;;;;;16.15;10.70;;;;;;;18.43;86.20;101236.47;5606054;31;33716;-61
2023/10/11 11:25:26;;;;;;;15.57;10.68;;;;;;;18.49;87.33;101229.00;5590525;31;33287;-61
2023/10/11 11:28:30;;;;;;;;;;;;;;;18.54;86.82;101229.66;5590385;31;33623;-61
2023/10/11 11:31:51;;;;;;;19.20;12.05;;;;;;;18.65;89.01;101227.47;5606058;31;33855;-61
2023/10/11 11:35:10;;;;;;;18.73;11.23;;;;;;;18.73;87.20;101220.50;5595629;31;33714;-61
2023/10/11 11:38:22;;;;;;;17.52;11.38;;;;;;;18.77;85.61;101222.28;5589064;31;33420;-61
2023/10/11 11:41:25;;;;;;;20.98;12.37;;;;;;;18.85;88.04;101211.75;5598839;31;33317;-61
2023/10/11 11:44:31;;;;;;;17.77;11.05;;;;;;;18.95;85.98;101201.38;5607159;31;32008;-61
2023/10/11 11:47:34;;;;;;;20.27;11.52;;;;;;;18.93;85.87;101195.44;5606880;31;34062;-61
2023/10/11 11:50:38;;;;;;;21.98;11.63;;;;;;;18.99;85.39;101187.97;5606487;31;34325;-61
2023/10/11 11:53:44;;;;;;;19.83;10.32;;;;;;;18.98;84.64;101186.37;5597301;31;33659;-61
2023/10/11 11:56:47;;;;;;;17.30;10.30;;;;;;;19.06;84.51;101185.56;5602635;31;33825;-61
2023/10/11 11:59:50;;;;;;;16.67;10.35;;;;;;;19.12;84.14;101184.31;5606799;31;33815;-60
2023/10/11 12:02:55;;;;;;;19.23;10.65;;;;;;;19.25;85.20;101183.34;5587969;31;34323;-61
2023/10/11 12:05:58;;;;;;;18.40;9.63;;;;;;;19.27;83.03;101179.50;5587485;31;33682;-61
2023/10/11 12:09:02;;;;;;;16.77;9.68;;;;;;;19.31;84.58;101173.13;5587402;31;33743;-61
2023/10/11 12:12:06;;;;;;;19.95;10.85;;;;;;;19.33;83.41;101164.62;5586823;31;33713;-61
2023/10/11 12:15:16;;;;;;;17.10;9.38;;;;;;;19.43;84.67;101167.84;5599132;31;34158;-61
2023/10/11 12:18:19;;;;;;;15.55;7.93;;;;;;;19.45;84.66;101170.25;5596109;31;33850;-61
2023/10/11 12:21:21;;;;;;;13.73;7.80;;;;;;;19.49;83.33;101163.84;5607029;31;33734;-61
2023/10/11 12:24:24;;;;;;;13.27;6.62;;;;;;;19.50;82.54;101164.62;5604160;31;34355;-61
2023/10/11 12:27:33;;;;;;;14.95;7.37;;;;;;;19.59;82.55;101159.19;5587102;31;34445;-61
2023/10/11 12:30:36;;;;;;;14.77;7.57;;;;;;;19.62;80.22;101144.94;5595951;31;33851;-61
2023/10/11 12:33:39;;;;;;;18.23;7.93;;;;;;;19.70;80.64;101149.59;5593818;31;34233;-61
2023/10/11 12:36:42;;;;;;;12.13;5.97;;;;;;;19.71;81.49;101143.84;5598834;31;33634;-61
2023/10/11 12:39:45;;;;;;;11.15;6.25;;;;;;;19.74;80.95;101138.87;5609361;31;34310;-61
2023/10/11 12:42:48;;;;;;;10.60;5.80;;;;;;;19.78;79.48;101137.91;5605560;31;33628;-61
2023/10/11 12:45:50;;;;;;;13.00;6.55;;;;;;;19.82;78.29;101138.06;5608984;31;33696;-60
2023/10/11 12:48:56;;;;;;;10.25;6.20;;;;;;;19.90;78.29;101129.06;5602964;31;33758;-61
2023/10/11 12:51:58;;;;;;;10.80;5.87;;;;;;;19.97;78.00;101132.09;5595418;31;34456;-61
2023/10/11 12:55:01;;;;;;;12.32;5.80;;;;;;;19.94;77.29;101125.37;5600830;31;34411;-61
2023/10/11 12:58:04;;;;;;;20.65;7.60;;;;;;;19.91;77.19;101120.59;5597575;31;34332;-61
2023/10/11 13:01:25;;;;;;;13.00;6.25;;;;;;;20.09;76.05;101107.69;5609433;31;33361;-61
2023/10/11 13:04:30;;;;;;;14.90;5.25;;;;;;;20.09;75.12;101109.62;5598768;31;33333;-61
2023/10/11 13:07:36;;;;;;;11.40;5.65;;;;;;;20.10;74.49;101109.31;5609083;31;34448;-61
2023/10/11 13:10:45;;;;;;;15.15;5.72;;;;;;;20.18;74.61;101099.50;5592126;31;33755;-63
2023/10/11 13:13:48;;;;;;;14.82;5.90;;;;;;;20.24;74.07;101102.84;5591581;31;34325;-63
2023/10/11 13:16:54;;;;;;;14.15;6.18;;;;;;;20.35;73.09;101099.41;5589669;31;33651;-64
2023/10/11 13:19:57;;;;;;;13.90;6.40;;;;;;;20.30;72.79;101088.72;5590465;31;34374;-62
2023/10/11 13:23:00;;;;;;;16.25;6.62;;;;;;;20.35;72.77;101085.81;5589425;31;33611;-64
2023/10/11 13:26:09;;;;;;;15.85;5.70;;;;;;;20.39;74.15;101083.22;5589601;31;34367;-63
2023/10/11 13:29:16;;;;;;;13.32;5.87;;;;;;;20.34;73.68;101086.16;5589652;31;33520;-64
2023/10/11 13:32:19;;;;;;;16.70;6.30;;;;;;;20.47;72.92;101076.94;5589218;31;34337;-63
2023/10/11 13:35:22;;;;;;;11.10;5.65;;;;;;;20.43;74.04;101070.56;5589826;31;33375;-64
2023/10/11 13:38:24;;;;;;;14.50;5.97;;;;;;;20.41;74.04;101072.81;5589277;31;34461;-63
2023/10/11 13:41:28;;;;;;;11.70;5.85;;;;;;;20.41;73.62;101070.09;5589560;31;34349;-63
2023/10/11 13:44:37;;;;;;;13.10;5.47;;;;;;;20.41;73.68;101057.25;5588575;31;33649;-64
2023/10/11 13:47:39;;;;;;;16.73;6.37;;;;;;;20.52;73.92;101056.91;5589169;31;33742;-63
2023/10/11 13:50:46;;;;;;;18.75;5.50;;;;;;;20.47;73.51;101057.87;5589233;31;34020;-62
2023/10/11 13:53:50;;;;;;;12.90;6.10;;;;;;;20.44;73.16;101055.81;5589354;31;34337;-63
2023/10/11 13:56:52;;;;;;;12.98;6.15;;;;;;;20.54;73.17;101054.66;5589376;31;33623;-64
2023/10/11 13:59:55;;;;;;;12.50;5.97;;;;;;;20.50;72.62;101053.69;5589469;31;33623;-63
2023/10/11 14:03:32;;;;;;;11.52;5.85;;;;;;;20.50;73.21;101056.41;5588063;31;33292;-64
2023/10/11 14:06:30;;;;;;;12.37;6.12;;;;;;;20.53;73.47;101045.69;5588738;31;33677;-63
2023/10/11 14:09:32;;;;;;;13.20;5.82;;;;;;;20.54;72.92;101050.00;5588860;31;33504;-63
2023/10/11 14:12:35;;;;;;;15.02;6.00;;;;;;;20.50;72.48;101040.09;5607478;31;34353;-63
2023/10/11 14:15:37;;;;;;;14.02;6.18;;;;;;;20.57;75.09;101043.09;5608584;31;33513;-62
2023/10/11 14:18:41;;;;;;;11.38;5.87;;;;;;;20.60;73.21;101045.16;5608259;31;33358;-62
2023/10/11 14:21:47;;;;;;;9.52;5.57;;;;;;;20.59;73.91;101046.28;5608222;31;33957;-61
2023/10/11 14:24:51;;;;;;;14.43;6.35;;;;;;;20.51;71.63;101037.03;5593944;31;34288;-61
2023/10/11 14:27:54;;;;;;;16.85;5.80;;;;;;;20.59;73.05;101035.38;5608780;31;33665;-62
2023/10/11 14:30:56;;;;;;;16.17;6.18;;;;;;;20.62;71.74;101037.44;5608617;31;33356;-63
2023/10/11 14:34:00;;;;;;;15.55;7.03;;;;;;;20.59;72.67;101035.38;5608378;31;33672;-62
2023/10/11 14:37:03;;;;;;;12.70;5.65;;;;;;;20.61;73.59;101044.03;5608872;31;34345;-62
2023/10/11 14:40:15;;;;;;;13.02;5.82;;;;;;;20.57;72.24;101034.94;5608830;31;34355;-63
2023/10/11 14:43:18;;;;;;;15.15;6.10;;;;;;;20.58;72.17;101031.06;5608837;31;34451;-61
2023/10/11 14:46:21;;;;;;;15.90;6.03;;;;;;;20.57;71.53;101030.28;5608402;31;33847;-61
2023/10/11 14:49:28;;;;;;;17.25;5.47;;;;;;;20.53;72.85;101032.06;5608141;31;33559;-61
2023/10/11 14:52:30;;;;;;;12.60;5.65;;;;;;;20.55;71.73;101031.72;5608190;31;34652;-61
2023/10/11 14:55:34;;;;;;;16.17;5.62;;;;;;;20.55;72.22;101024.34;5607749;31;33779;-61
2023/10/11 14:58:37;;;;;;;10.80;5.30;;;;;;;20.52;71.70;101026.94;5608134;31;33951;-61
2023/10/11 15:01:39;;;;;;;12.65;5.37;;;;;;;20.50;71.91;101029.19;5608437;31;34103;-62
2023/10/11 15:04:42;;;;;;;16.37;6.20;;;;;;;20.48;72.08;101029.50;5608702;31;34008;-61
2023/10/11 15:07:51;;;;;;;12.27;5.10;;;;;;;20.49;72.23;101027.56;5608546;31;33692;-62
2023/10/11 15:10:56;;;;;;;13.18;6.05;;;;;;;20.39;70.73;101024.09;5608287;31;33734;-62
2023/10/11 15:14:07;;;;;;;13.88;5.15;;;;;;;20.39;71.80;101023.31;5608640;31;33718;-61
2023/10/11 15:17:11;;;;;;;7.95;4.80;;;;;;;20.35;72.19;101031.34;5608687;31;33716;-61
2023/10/11 15:20:14;;;;;;;13.38;5.30;;;;;;;20.29;72.31;101029.16;5608521;31;33689;-61
2023/10/11 15:23:17;;;;;;;9.32;5.32;;;;;;;20.30;73.97;101023.37;5608560;31;33762;-61
2023/10/11 15:26:21;;;;;;;10.98;5.43;;;;;;;20.22;73.34;101013.34;5608452;31;34407;-61
2023/10/11 15:29:23;;;;;;;17.08;5.85;;;;;;;20.19;73.16;101017.50;5608628;31;33866;-61
2023/10/11 15:32:26;;;;;;;17.52;6.75;;;;;;;20.14;73.55;101011.47;5608083;31;34392;-62
2023/10/11 15:35:28;;;;;;;18.52;6.12;;;;;;;20.13;72.86;101013.41;5608564;31;34535;-63
2023/10/11 15:38:32;;;;;;;11.93;6.30;;;;;;;20.13;77.12;101012.59;5608314;31;34369;-61
